Time;durP1;ratioP1;P1;durP2;ratioP2;P2;SDS_P1;SDS_P2;PMS_P1;PMS_P2;Temp;Humidity;BMP_temperature;BMP_pressure;BME280_temperature;BME280_humidity;BME280_pressure;Samples;Min_cycle;Max_cycle;Signal;HPM_P1;HPM_P2
2023/05/01 00:01:07;;;;;;;4.05;3.10;;;;;;;8.85;82.37;101891.81;6069113;23;20015;-77
2023/05/01 00:03:33;;;;;;;3.22;2.90;;;;;;;8.82;82.61;101887.31;6070615;23;20015;-77
2023/05/01 00:06:03;;;;;;;3.08;2.88;;;;;;;8.78;82.74;101886.63;6070866;23;20024;-77
2023/05/01 00:08:31;;;;;;;3.00;2.65;;;;;;;8.74;83.37;101883.25;6068938;23;20113;-77
2023/05/01 00:11:04;;;;;;;3.38;3.10;;;;;;;8.68;83.14;101876.88;6070891;23;20019;-77
2023/05/01 00:13:31;;;;;;;3.33;3.03;;;;;;;8.64;83.78;101871.63;6070666;23;20015;-77
2023/05/01 00:15:57;;;;;;;3.95;3.00;;;;;;;8.59;83.58;101871.31;6070599;23;20028;-77
2023/05/01 00:18:24;;;;;;;3.38;3.08;;;;;;;8.57;84.43;101865.66;6070474;23;20019;-77
2023/05/01 00:20:50;;;;;;;3.10;2.90;;;;;;;8.55;83.76;101858.06;6068916;23;20075;-77
2023/05/01 00:23:17;;;;;;;3.80;2.83;;;;;;;8.52;84.36;101861.53;6069187;23;20071;-77
2023/05/01 00:25:43;;;;;;;3.28;3.03;;;;;;;8.52;84.08;101852.81;6070776;23;20026;-77
2023/05/01 00:28:10;;;;;;;3.65;3.20;;;;;;;8.49;84.16;101856.25;6070945;23;20590;-77
2023/05/01 00:30:37;;;;;;;4.20;2.92;;;;;;;8.45;84.07;101851.00;6072115;23;20019;-77
2023/05/01 00:33:03;;;;;;;7.03;3.25;;;;;;;8.42;84.29;101846.47;6071369;23;20022;-78
2023/05/01 00:35:30;;;;;;;3.50;3.20;;;;;;;8.37;84.57;101844.28;6070222;23;20411;-77
2023/05/01 00:37:57;;;;;;;3.97;3.67;;;;;;;8.32;84.78;101845.47;6070534;23;20303;-77
2023/05/01 00:40:23;;;;;;;3.60;3.10;;;;;;;8.31;84.42;101843.19;6072506;23;20080;-77
2023/05/01 00:42:50;;;;;;;3.67;3.38;;;;;;;8.27;84.88;101832.59;6072113;23;20480;-77
2023/05/01 00:45:17;;;;;;;6.35;3.40;;;;;;;8.21;84.45;101823.56;6071846;23;20047;-77
2023/05/01 00:47:44;;;;;;;4.72;3.53;;;;;;;8.22;84.73;101825.09;6071260;23;20023;-77
2023/05/01 00:50:10;;;;;;;4.72;3.55;;;;;;;8.20;84.96;101823.97;6070541;23;20538;-77
2023/05/01 00:52:38;;;;;;;4.60;3.30;;;;;;;8.18;85.33;101815.66;6071845;23;20079;-77
2023/05/01 00:55:05;;;;;;;3.78;3.45;;;;;;;8.14;85.17;101813.03;6070095;23;20031;-77
2023/05/01 00:57:32;;;;;;;3.55;3.25;;;;;;;8.09;84.83;101810.06;6069632;23;20083;-77
2023/05/01 00:59:59;;;;;;;5.05;3.20;;;;;;;8.03;85.72;101804.44;6069897;23;20103;-77
2023/05/01 01:02:26;;;;;;;3.65;3.45;;;;;;;7.97;85.24;101806.81;6070182;23;20016;-78
2023/05/01 01:04:53;;;;;;;3.33;3.03;;;;;;;7.96;85.27;101801.91;6070034;23;20426;-77
2023/05/01 01:07:58;;;;;;;3.70;3.00;;;;;;;7.96;85.23;101793.94;6069921;23;20082;-77
2023/05/01 01:10:36;;;;;;;3.85;3.22;;;;;;;7.89;85.04;101786.06;6070497;23;20015;-77
2023/05/01 01:13:25;;;;;;;4.03;3.40;;;;;;;7.86;85.13;101789.50;6070123;23;20023;-77
2023/05/01 01:16:07;;;;;;;4.57;3.10;;;;;;;7.86;85.55;101786.84;6069739;23;20023;-78
2023/05/01 01:18:55;;;;;;;3.35;3.15;;;;;;;7.85;85.44;101780.78;6070260;23;20030;-77
2023/05/01 01:21:31;;;;;;;3.60;3.33;;;;;;;7.79;85.30;101781.59;6046792;23;20019;-77
2023/05/01 01:24:33;;;;;;;4.80;3.25;;;;;;;7.79;86.19;101771.00;6071880;23;20019;-77
2023/05/01 01:27:18;;;;;;;;;;;;;;;7.79;85.18;101774.41;6094319;23;20031;-77
2023/05/01 01:29:53;;;;;;;7.35;2.85;;;;;;;7.76;86.15;101761.19;6070104;23;19953;-77
2023/05/01 01:32:45;;;;;;;3.40;3.10;;;;;;;7.73;86.15;101754.78;6071919;23;20094;-77
2023/05/01 01:35:18;;;;;;;3.60;3.30;;;;;;;7.70;86.23;101758.97;6071544;23;20433;-77
2023/05/01 01:37:56;;;;;;;6.97;4.00;;;;;;;7.69;85.91;101751.41;6071823;23;20477;-77
2023/05/01 01:40:27;;;;;;;5.72;3.53;;;;;;;7.68;86.79;101747.25;6071461;23;20015;-77
2023/05/01 01:43:01;;;;;;;6.20;3.50;;;;;;;7.67;87.35;101745.75;6070381;23;20533;-77
2023/05/01 01:45:40;;;;;;;3.50;3.30;;;;;;;7.62;87.10;101740.88;6071403;23;20091;-77
2023/05/01 01:48:13;;;;;;;4.13;3.47;;;;;;;7.60;87.66;101735.97;6071479;23;20024;-77
2023/05/01 01:50:42;;;;;;;6.13;3.60;;;;;;;7.59;88.34;101734.50;6070188;23;20094;-77
2023/05/01 01:53:11;;;;;;;5.70;3.35;;;;;;;7.57;87.96;101731.50;6069874;23;20026;-77
2023/05/01 01:55:40;;;;;;;5.20;3.25;;;;;;;7.54;88.33;101724.31;6069325;23;20019;-77
2023/05/01 01:58:09;;;;;;;5.85;3.53;;;;;;;7.55;88.73;101725.06;6069721;23;20027;-77
2023/05/01 02:00:37;;;;;;;4.00;3.55;;;;;;;7.52;88.86;101716.00;6068858;23;20023;-77
2023/05/01 02:03:04;;;;;;;4.32;3.60;;;;;;;7.52;88.16;101715.25;6045737;23;20058;-78
2023/05/01 02:05:33;;;;;;;3.40;3.20;;;;;;;7.51;88.36;101713.75;6071382;23;20067;-77
2023/05/01 02:08:01;;;;;;;3.60;3.30;;;;;;;7.48;88.91;101710.00;6069341;23;20034;-76
2023/05/01 02:10:28;;;;;;;3.40;3.15;;;;;;;7.48;88.68;101703.94;6069926;23;20454;-77
2023/05/01 02:12:57;;;;;;;6.28;3.28;;;;;;;7.48;88.52;101706.59;6069982;23;20015;-76
2023/05/01 02:15:26;;;;;;;4.45;3.75;;;;;;;7.47;88.82;101695.25;6070964;23;20394;-78
2023/05/01 02:17:53;;;;;;;13.25;3.50;;;;;;;7.46;89.30;101696.41;6069554;23;20183;-78
2023/05/01 02:20:21;;;;;;;3.85;3.55;;;;;;;7.45;88.78;101697.53;6069536;23;20020;-78
2023/05/01 02:22:52;;;;;;;3.92;3.60;;;;;;;7.43;89.33;101686.59;6071399;23;20043;-77
2023/05/01 02:25:18;;;;;;;4.93;3.57;;;;;;;7.41;89.01;101694.16;6071394;23;20020;-78
2023/05/01 02:28:07;;;;;;;4.57;3.58;;;;;;;7.37;88.23;101688.16;6071036;23;20279;-77
2023/05/01 02:30:34;;;;;;;4.03;3.72;;;;;;;7.36;89.12;101687.41;6071309;23;20026;-77
2023/05/01 02:33:00;;;;;;;3.97;3.50;;;;;;;7.35;88.98;101675.31;6069615;23;20107;-78
2023/05/01 02:35:27;;;;;;;4.57;2.90;;;;;;;7.35;89.38;101677.94;6070057;23;20092;-77
2023/05/01 02:37:53;;;;;;;3.75;3.45;;;;;;;7.35;89.39;101680.59;6069703;23;20083;-77
2023/05/01 02:40:20;;;;;;;3.47;3.17;;;;;;;7.35;89.07;101677.19;6071411;23;20450;-77
2023/05/01 02:42:48;;;;;;;3.65;3.22;;;;;;;7.36;89.31;101673.41;6068888;23;20019;-78
2023/05/01 02:45:20;;;;;;;5.25;3.38;;;;;;;7.34;88.95;101676.44;6071002;23;20099;-76
2023/05/01 02:47:51;;;;;;;7.25;3.55;;;;;;;7.34;89.55;101671.16;6071511;23;20356;-78
2023/05/01 02:50:19;;;;;;;3.67;3.45;;;;;;;7.35;89.48;101670.00;6069459;23;20110;-77
2023/05/01 02:52:46;;;;;;;5.90;3.40;;;;;;;7.35;89.27;101670.00;6045464;23;20020;-77
2023/05/01 02:55:36;;;;;;;3.60;3.30;;;;;;;7.36;89.10;101668.09;6069096;23;20027;-78
2023/05/01 02:58:02;;;;;;;3.40;3.13;;;;;;;7.37;89.38;101661.66;6070626;23;20079;-77
2023/05/01 03:00:29;;;;;;;4.10;3.55;;;;;;;7.40;90.19;101654.81;6069105;23;20087;-77
2023/05/01 03:02:57;;;;;;;6.20;3.58;;;;;;;7.39;90.20;101653.31;6071262;23;20023;-77
2023/05/01 03:05:23;;;;;;;3.60;3.28;;;;;;;7.42;89.95;101657.84;6069704;23;20023;-75
2023/05/01 03:07:50;;;;;;;6.55;3.38;;;;;;;7.42;90.20;101655.94;6071574;23;20023;-76
2023/05/01 03:10:16;;;;;;;3.35;3.05;;;;;;;7.45;90.11;101649.09;6070981;23;20075;-76
2023/05/01 03:12:43;;;;;;;3.97;3.53;;;;;;;7.47;90.25;101647.56;6070613;23;20011;-75
2023/05/01 03:15:11;;;;;;;6.78;4.00;;;;;;;7.49;89.73;101641.88;6071047;23;20015;-76
2023/05/01 03:17:38;;;;;;;3.30;3.00;;;;;;;7.51;89.85;101636.91;6069579;23;20517;-77
2023/05/01 03:20:06;;;;;;;4.57;3.70;;;;;;;7.55;90.36;101632.34;6071244;23;20023;-77
2023/05/01 03:22:33;;;;;;;4.72;3.72;;;;;;;7.57;90.04;101630.78;6069439;23;20050;-77
2023/05/01 03:25:00;;;;;;;4.50;3.67;;;;;;;7.60;90.21;101626.56;6069314;23;20019;-77
2023/05/01 03:27:26;;;;;;;3.88;3.58;;;;;;;7.62;90.15;101624.28;6069439;23;20047;-78
2023/05/01 03:29:53;;;;;;;5.22;4.07;;;;;;;7.64;90.41;101625.38;6069610;23;20030;-77
2023/05/01 03:32:21;;;;;;;5.80;3.72;;;;;;;7.65;90.49;101618.19;6069770;23;20109;-77
2023/05/01 03:34:49;;;;;;;3.63;3.33;;;;;;;7.65;90.77;101618.19;6069054;23;20401;-77
2023/05/01 03:37:16;;;;;;;4.88;3.20;;;;;;;7.65;90.69;101615.53;6069122;23;20436;-77
2023/05/01 03:39:43;;;;;;;3.42;3.20;;;;;;;7.66;90.40;101609.84;6045151;23;20457;-77
2023/05/01 03:42:28;;;;;;;4.88;4.03;;;;;;;7.69;90.80;101609.03;6070541;23;20112;-77
2023/05/01 03:45:00;;;;;;;3.22;3.03;;;;;;;7.72;90.58;101604.09;6068918;23;20071;-78
2023/05/01 03:47:28;;;;;;;4.68;3.47;;;;;;;7.74;91.06;101607.09;6069435;23;20031;-77
2023/05/01 03:49:55;;;;;;;3.45;3.25;;;;;;;7.75;91.02;101611.25;6069693;23;20458;-78
2023/05/01 03:52:22;;;;;;;3.88;3.58;;;;;;;7.74;90.52;101609.75;6069433;23;20027;-77
2023/05/01 03:54:50;;;;;;;3.83;3.40;;;;;;;7.72;90.64;101612.06;6045366;23;20025;-77
2023/05/01 03:57:23;;;;;;;4.95;3.80;;;;;;;7.69;90.55;101609.03;6069276;23;20458;-77
2023/05/01 03:59:50;;;;;;;4.28;3.58;;;;;;;7.71;90.92;101598.03;6071660;23;20019;-77
2023/05/01 04:02:18;;;;;;;3.83;3.45;;;;;;;7.72;91.03;101598.78;6073336;23;20042;-78
2023/05/01 04:04:44;;;;;;;8.88;3.80;;;;;;;7.74;90.61;101601.81;6050128;23;20015;-78
2023/05/01 04:07:12;;;;;;;4.10;3.60;;;;;;;7.74;90.93;101597.25;6073706;23;20105;-78
2023/05/01 04:09:39;;;;;;;5.43;3.55;;;;;;;7.75;91.01;101601.41;6049287;23;20018;-76
2023/05/01 04:12:06;;;;;;;5.53;4.25;;;;;;;7.76;90.99;101596.84;6050074;23;20022;-78
2023/05/01 04:14:32;;;;;;;4.72;4.20;;;;;;;7.77;90.49;101593.81;6050122;23;20040;-78
2023/05/01 04:17:00;;;;;;;4.43;4.00;;;;;;;7.80;90.94;101589.59;6073586;23;20031;-78
2023/05/01 04:19:29;;;;;;;4.78;3.90;;;;;;;7.81;90.70;101599.06;6073748;23;20831;-78
2023/05/01 04:21:57;;;;;;;4.88;3.95;;;;;;;7.83;91.14;101594.13;6049981;23;20021;-78
2023/05/01 04:24:24;;;;;;;4.82;4.40;;;;;;;7.86;91.28;101588.03;6049389;23;20023;-78
2023/05/01 04:26:52;;;;;;;7.18;4.35;;;;;;;7.88;91.05;101588.38;6074447;23;20022;-77
2023/05/01 04:29:18;;;;;;;5.53;4.07;;;;;;;7.88;91.23;101589.13;6074042;23;20023;-76
2023/05/01 04:31:45;;;;;;;8.50;5.13;;;;;;;7.90;92.01;101588.72;6073945;23;20018;-77
2023/05/01 04:34:11;;;;;;;11.43;4.85;;;;;;;7.91;91.23;101590.22;6049164;23;20023;-76
2023/05/01 04:36:38;;;;;;;5.00;4.43;;;;;;;7.91;90.91;101585.66;6073398;23;20030;-79
2023/05/01 04:39:05;;;;;;;6.43;4.15;;;;;;;7.97;90.61;101591.28;6098279;23;20520;-78
2023/05/01 04:41:31;;;;;;;5.00;3.95;;;;;;;7.98;89.98;101592.78;6073419;23;20046;-78
2023/05/01 04:43:58;;;;;;;8.18;4.53;;;;;;;7.99;90.47;101591.63;6100003;23;20015;-78
2023/05/01 04:46:25;;;;;;;7.28;4.60;;;;;;;8.01;90.21;101590.06;6074458;23;20019;-78
2023/05/01 04:48:52;;;;;;;4.57;4.13;;;;;;;8.01;90.81;101591.94;6074551;23;20023;-79
2023/05/01 04:51:19;;;;;;;5.05;4.53;;;;;;;8.01;90.65;101595.34;6074791;23;20018;-79
2023/05/01 04:53:46;;;;;;;8.70;4.63;;;;;;;8.00;90.21;101599.16;6074032;23;20019;-78
2023/05/01 04:56:22;;;;;;;8.48;4.22;;;;;;;8.06;90.00;101599.47;6074379;23;20019;-78
2023/05/01 04:58:52;;;;;;;5.70;4.88;;;;;;;8.10;89.15;101597.50;6074438;23;20105;-78
2023/05/01 05:01:21;;;;;;;7.30;4.53;;;;;;;8.11;88.94;101596.38;6069552;23;20029;-78
2023/05/01 05:03:48;;;;;;;7.05;4.68;;;;;;;8.16;89.35;101597.81;6069791;23;20051;-79
2023/05/01 05:06:16;;;;;;;4.63;4.22;;;;;;;8.19;88.64;101592.47;6069340;23;20028;-78
2023/05/01 05:08:42;;;;;;;5.00;4.43;;;;;;;8.23;88.13;101593.16;6069252;23;20019;-78
2023/05/01 05:11:11;;;;;;;6.68;4.45;;;;;;;8.26;87.46;101587.06;6069282;23;20091;-79
2023/05/01 05:13:47;;;;;;;7.05;4.63;;;;;;;8.31;87.72;101583.94;6069666;23;20428;-78
2023/05/01 05:16:14;;;;;;;4.93;4.20;;;;;;;8.35;87.29;101583.91;6046815;23;20083;-79
2023/05/01 05:18:41;;;;;;;5.60;4.57;;;;;;;8.40;87.10;101582.72;6071132;23;20019;-77
2023/05/01 05:21:09;;;;;;;4.82;4.38;;;;;;;8.45;87.20;101587.53;6072260;23;20021;-77
2023/05/01 05:23:37;;;;;;;10.18;5.53;;;;;;;8.49;87.01;101588.97;6070208;23;20529;-76
2023/05/01 05:26:04;;;;;;;11.02;4.45;;;;;;;8.52;86.82;101592.72;6070537;23;20129;-76
2023/05/01 05:28:31;;;;;;;10.00;4.35;;;;;;;8.55;86.27;101594.59;6072569;23;20031;-76
2023/05/01 05:30:57;;;;;;;9.70;4.80;;;;;;;8.56;85.32;101588.13;6070328;23;20024;-76
2023/05/01 05:33:24;;;;;;;6.78;4.75;;;;;;;8.60;85.85;101586.16;6070995;23;20075;-76
2023/05/01 05:35:51;;;;;;;9.57;4.60;;;;;;;8.65;85.97;101588.34;6070864;23;20399;-76
2023/05/01 05:38:22;;;;;;;5.18;4.70;;;;;;;8.71;85.50;101581.44;6070454;23;20011;-77
2023/05/01 05:40:53;;;;;;;5.32;4.82;;;;;;;8.78;85.81;101577.91;6047763;23;20015;-77
2023/05/01 05:43:20;;;;;;;10.05;4.82;;;;;;;8.81;85.42;101582.38;6094663;23;20023;-78
2023/05/01 05:45:47;;;;;;;8.73;4.40;;;;;;;8.86;85.04;101582.66;6070824;23;20027;-79
2023/05/01 05:48:14;;;;;;;6.78;4.80;;;;;;;8.91;85.43;101576.88;6070330;23;20028;-77
2023/05/01 05:50:41;;;;;;;5.82;4.45;;;;;;;8.96;85.23;101578.31;6070860;23;20046;-77
2023/05/01 05:53:10;;;;;;;7.35;5.00;;;;;;;9.00;84.29;101574.44;6069462;23;20031;-76
2023/05/01 05:55:37;;;;;;;6.20;4.97;;;;;;;9.03;83.88;101565.66;6070780;23;20031;-76
2023/05/01 05:58:06;;;;;;;9.32;5.18;;;;;;;9.07;82.46;101572.81;6070005;23;20019;-76
2023/05/01 06:00:34;;;;;;;14.15;4.70;;;;;;;9.11;81.71;101562.88;6094385;23;20427;-76
2023/05/01 06:03:04;;;;;;;4.90;4.40;;;;;;;9.14;80.54;101573.44;6070016;23;20022;-75
2023/05/01 06:05:33;;;;;;;7.03;4.57;;;;;;;9.19;79.34;101572.22;6069879;23;20450;-76
2023/05/01 06:07:59;;;;;;;12.40;5.30;;;;;;;9.23;79.34;101575.53;6070044;23;20024;-75
2023/05/01 06:10:26;;;;;;;4.82;4.28;;;;;;;9.29;79.46;101569.31;6070765;23;20019;-76
2023/05/01 06:12:52;;;;;;;7.55;4.28;;;;;;;9.33;78.76;101575.31;6070588;23;20023;-76
2023/05/01 06:15:32;;;;;;;5.25;4.65;;;;;;;9.39;78.51;101570.28;6070707;23;20053;-75
2023/05/01 06:17:59;;;;;;;5.22;4.82;;;;;;;9.44;78.08;101561.81;6046543;23;20015;-76
2023/05/01 06:20:26;;;;;;;8.95;4.45;;;;;;;9.51;77.49;101561.69;6069762;23;20050;-75
2023/05/01 06:22:54;;;;;;;7.63;5.07;;;;;;;9.60;77.87;101561.09;6069854;23;20020;-76
2023/05/01 06:25:27;;;;;;;9.63;4.82;;;;;;;9.70;76.97;101562.78;6070287;23;20023;-75
2023/05/01 06:27:54;;;;;;;6.03;4.57;;;;;;;9.79;76.05;101560.31;6046040;23;20547;-75
2023/05/01 06:30:22;;;;;;;5.38;4.60;;;;;;;9.87;75.69;101553.69;6069943;23;20023;-75
2023/05/01 06:32:48;;;;;;;6.65;4.95;;;;;;;9.97;75.22;101565.25;6072190;23;20020;-76
2023/05/01 06:35:16;;;;;;;7.22;4.63;;;;;;;10.09;75.27;101553.94;6069025;23;20497;-76
2023/05/01 06:37:42;;;;;;;5.50;4.70;;;;;;;10.18;74.52;101558.66;6069889;23;20019;-76
2023/05/01 06:40:10;;;;;;;4.93;4.55;;;;;;;10.28;74.67;101561.13;6069605;23;20050;-76
2023/05/01 06:42:38;;;;;;;11.77;4.90;;;;;;;10.35;74.36;101560.94;6070250;23;20019;-77
2023/05/01 06:45:06;;;;;;;7.25;4.82;;;;;;;10.45;74.54;101561.81;6070088;23;20035;-76
2023/05/01 06:47:32;;;;;;;11.30;4.95;;;;;;;10.49;73.65;101565.16;6070479;23;20027;-76
2023/05/01 06:49:59;;;;;;;6.78;4.72;;;;;;;10.51;72.62;101557.50;6070971;23;20437;-76
2023/05/01 06:52:31;;;;;;;8.35;4.93;;;;;;;10.53;72.57;101555.16;6070408;23;20047;-76
2023/05/01 06:54:58;;;;;;;5.78;5.18;;;;;;;10.60;72.27;101556.91;6071539;23;20024;-77
2023/05/01 06:57:25;;;;;;;10.75;5.13;;;;;;;10.63;72.74;101559.47;6070481;23;20414;-76
2023/05/01 06:59:51;;;;;;;9.07;4.65;;;;;;;10.70;72.38;101561.22;6071436;23;20019;-76
2023/05/01 07:02:18;;;;;;;8.27;5.40;;;;;;;10.76;72.00;101554.22;6099705;23;20019;-76
2023/05/01 07:04:45;;;;;;;7.90;5.05;;;;;;;10.85;72.15;101553.59;6099110;23;20102;-77
2023/05/01 07:07:11;;;;;;;5.22;4.68;;;;;;;10.92;71.19;101554.16;6099816;23;20019;-77
2023/05/01 07:09:39;;;;;;;5.57;5.07;;;;;;;10.97;71.13;101548.31;6100597;23;20588;-76
2023/05/01 07:12:06;;;;;;;9.32;5.00;;;;;;;11.02;70.75;101550.47;6100640;23;20078;-77
2023/05/01 07:14:35;;;;;;;6.65;4.70;;;;;;;11.02;70.75;101553.13;6099422;23;20026;-77
2023/05/01 07:17:02;;;;;;;6.22;5.63;;;;;;;11.11;71.42;101555.16;6100641;23;20022;-77
2023/05/01 07:19:29;;;;;;;5.53;4.95;;;;;;;11.17;70.86;101553.47;6100643;23;20030;-77
2023/05/01 07:21:55;;;;;;;8.10;5.00;;;;;;;11.26;70.82;101561.59;6074381;23;20078;-78
2023/05/01 07:24:25;;;;;;;13.40;5.55;;;;;;;11.38;71.33;101556.72;6100645;23;20085;-77
2023/05/01 07:26:51;;;;;;;10.98;5.55;;;;;;;11.48;70.66;101555.66;6100563;23;20090;-80
2023/05/01 07:29:18;;;;;;;8.38;5.50;;;;;;;11.58;70.23;101558.03;6100541;23;20023;-77
2023/05/01 07:31:45;;;;;;;5.93;4.75;;;;;;;11.72;70.41;101551.50;6101033;23;20074;-78
2023/05/01 07:34:11;;;;;;;9.95;5.60;;;;;;;11.83;71.09;101557.28;6098866;23;20045;-78
2023/05/01 07:36:38;;;;;;;7.53;4.97;;;;;;;11.86;70.27;101558.34;6100592;23;20023;-78
2023/05/01 07:39:05;;;;;;;6.07;5.13;;;;;;;11.89;69.71;101557.50;6074711;23;20468;-79
2023/05/01 07:41:32;;;;;;;6.60;5.55;;;;;;;11.93;69.22;101558.13;6100719;23;20430;-79
2023/05/01 07:43:58;;;;;;;10.02;5.65;;;;;;;11.99;68.90;101556.44;6074960;23;20029;-79
2023/05/01 07:46:25;;;;;;;6.38;5.35;;;;;;;12.08;69.01;101553.84;6100292;23;20019;-79
2023/05/01 07:48:52;;;;;;;7.70;4.70;;;;;;;12.15;69.63;101553.63;6098151;23;20500;-80
2023/05/01 07:51:19;;;;;;;6.63;5.55;;;;;;;12.20;68.94;101549.66;6098190;23;20018;-79
2023/05/01 07:53:46;;;;;;;9.52;4.95;;;;;;;12.24;67.88;101553.72;6099633;23;20081;-79
2023/05/01 07:56:12;;;;;;;9.13;5.35;;;;;;;12.22;68.21;101555.31;6097619;23;20015;-79
2023/05/01 07:58:41;;;;;;;7.72;5.18;;;;;;;12.24;69.61;101548.38;6099574;23;20015;-79
2023/05/01 08:01:08;;;;;;;11.73;5.45;;;;;;;12.27;69.22;101546.75;6098706;23;20019;-78
2023/05/01 08:03:34;;;;;;;12.18;5.20;;;;;;;12.29;68.83;101557.75;6099128;23;20019;-78
2023/05/01 08:06:01;;;;;;;6.68;5.75;;;;;;;12.35;68.71;101548.78;6099816;23;20011;-78
2023/05/01 08:08:28;;;;;;;7.88;5.35;;;;;;;12.41;68.38;101564.22;6074170;23;20019;-78
2023/05/01 08:10:55;;;;;;;10.57;6.07;;;;;;;12.47;68.93;101559.81;6099229;23;20021;-78
2023/05/01 08:13:21;;;;;;;9.95;5.80;;;;;;;12.52;68.54;101559.28;6100346;23;20342;-78
2023/05/01 08:15:48;;;;;;;8.50;5.75;;;;;;;12.50;67.59;101561.63;6074538;23;20011;-78
2023/05/01 08:18:19;;;;;;;9.30;5.95;;;;;;;12.54;67.67;101560.34;6073418;23;20026;-79
2023/05/01 08:20:49;;;;;;;8.32;5.95;;;;;;;12.52;67.69;101560.03;6100499;23;20091;-80
2023/05/01 08:23:16;;;;;;;15.85;5.90;;;;;;;12.48;68.38;101564.75;6100285;23;20207;-79
2023/05/01 08:25:45;;;;;;;9.90;5.72;;;;;;;12.52;68.69;101564.63;6100013;23;20015;-80
2023/05/01 08:28:13;;;;;;;6.68;5.45;;;;;;;12.48;67.72;101559.41;6050070;23;20342;-79
2023/05/01 08:30:40;;;;;;;9.27;5.65;;;;;;;12.50;68.05;101557.03;6099468;23;20085;-79
2023/05/01 08:33:07;;;;;;;7.18;5.85;;;;;;;12.63;68.22;101560.41;6099628;23;20019;-79
2023/05/01 08:35:33;;;;;;;7.35;5.68;;;;;;;12.67;68.28;101560.31;6100180;23;20049;-79
2023/05/01 08:38:00;;;;;;;7.72;5.82;;;;;;;12.73;68.03;101555.16;6099824;23;20053;-79
2023/05/01 08:40:32;;;;;;;8.63;5.63;;;;;;;12.74;67.68;101557.41;6099195;23;20488;-80
2023/05/01 08:43:00;;;;;;;6.38;5.80;;;;;;;12.82;69.19;101560.53;6099043;23;20019;-79
2023/05/01 08:45:28;;;;;;;6.20;5.47;;;;;;;12.88;68.77;101564.91;6098244;23;20035;-80
2023/05/01 08:47:57;;;;;;;8.25;5.60;;;;;;;12.86;67.69;101555.81;6099181;23;20019;-79
2023/05/01 08:50:25;;;;;;;7.88;5.72;;;;;;;12.87;66.99;101560.72;6100823;23;20019;-79
2023/05/01 08:52:52;;;;;;;9.77;5.50;;;;;;;12.93;67.36;101553.66;6100786;23;20446;-79
2023/05/01 08:55:20;;;;;;;7.72;5.57;;;;;;;13.03;67.14;101554.47;6100496;23;20078;-79
2023/05/01 08:57:47;;;;;;;8.30;5.63;;;;;;;13.11;67.99;101558.38;6101268;23;20075;-79
2023/05/01 09:00:19;;;;;;;6.47;5.75;;;;;;;13.13;67.96;101557.94;6099397;23;20018;-79
2023/05/01 09:02:47;;;;;;;5.75;5.22;;;;;;;13.14;67.74;101562.09;6101229;23;20019;-79
2023/05/01 09:05:15;;;;;;;7.43;5.85;;;;;;;13.21;68.43;101559.19;6101807;23;20528;-89
2023/05/01 09:07:43;;;;;;;9.15;5.63;;;;;;;13.28;67.99;101564.28;6100835;23;20119;-79
2023/05/01 09:10:11;;;;;;;9.13;5.72;;;;;;;13.31;67.75;101563.41;6099650;23;20023;-81
2023/05/01 09:12:38;;;;;;;8.80;5.70;;;;;;;13.44;67.68;101561.41;6074927;23;20019;-79
2023/05/01 09:15:06;;;;;;;9.10;5.55;;;;;;;13.57;66.08;101559.38;6100265;23;20349;-80
2023/05/01 09:17:34;;;;;;;7.20;6.18;;;;;;;13.64;67.18;101561.03;6101034;23;20039;-79
2023/05/01 09:20:04;;;;;;;6.40;5.53;;;;;;;13.74;66.91;101562.56;6099530;23;20019;-80
2023/05/01 09:22:32;;;;;;;10.73;5.72;;;;;;;13.87;66.16;101565.13;6101511;23;20029;-80
2023/05/01 09:24:59;;;;;;;8.35;6.05;;;;;;;14.00;65.62;101558.44;6101144;23;20465;-82
2023/05/01 09:27:26;;;;;;;8.23;5.95;;;;;;;14.12;65.49;101562.19;6074707;23;20022;-81
2023/05/01 09:29:52;;;;;;;303.83;256.48;;;;;;;14.27;64.34;101568.47;6098684;23;20029;-81
2023/05/01 09:32:24;;;;;;;85.32;57.08;;;;;;;14.44;62.80;101563.59;6099920;23;20019;-81
2023/05/01 09:34:52;;;;;;;10.48;7.82;;;;;;;14.57;61.68;101576.84;6101392;23;20015;-80
2023/05/01 09:37:29;;;;;;;9.32;6.60;;;;;;;14.68;61.41;101571.81;6100599;23;20019;-81
2023/05/01 09:40:10;;;;;;;10.23;6.35;;;;;;;14.83;61.94;101572.66;6100488;23;20346;-78
2023/05/01 09:42:39;;;;;;;6.72;5.68;;;;;;;14.91;60.18;101573.84;6101187;23;20025;-78
2023/05/01 09:45:12;;;;;;;8.02;5.75;;;;;;;14.98;59.94;101570.88;6098480;23;20019;-78
2023/05/01 09:47:43;;;;;;;7.07;5.75;;;;;;;15.21;60.10;101572.16;6099050;23;20365;-78
2023/05/01 09:50:31;;;;;;;6.60;5.90;;;;;;;15.38;59.55;101575.25;6098293;23;20617;-80
2023/05/01 09:53:00;;;;;;;9.10;5.28;;;;;;;15.37;58.63;101576.44;6098365;23;20019;-81
2023/05/01 09:55:27;;;;;;;6.47;4.90;;;;;;;15.41;58.40;101576.28;6098522;23;20015;-81
2023/05/01 09:57:53;;;;;;;5.55;4.80;;;;;;;15.52;56.11;101577.28;6099632;23;20053;-87
2023/05/01 10:00:20;;;;;;;4.97;4.55;;;;;;;15.59;54.46;101568.94;6071430;23;20011;-82
2023/05/01 10:02:48;;;;;;;12.75;5.38;;;;;;;15.61;53.99;101568.47;6073029;23;20019;-81
2023/05/01 10:05:15;;;;;;;8.23;4.78;;;;;;;15.68;53.59;101566.19;6070565;23;20054;-80
2023/05/01 10:07:59;;;;;;;5.60;4.35;;;;;;;15.78;54.05;101571.53;6070541;23;20023;-80
2023/05/01 10:10:27;;;;;;;6.60;4.93;;;;;;;15.86;51.85;101573.44;6071911;23;20506;-80
2023/05/01 10:12:54;;;;;;;9.60;4.80;;;;;;;16.01;52.37;101570.78;6071557;23;20446;-82
2023/05/01 10:15:20;;;;;;;7.30;4.65;;;;;;;16.14;52.19;101570.56;6071962;23;20015;-77
2023/05/01 10:17:52;;;;;;;;;;;;;;;16.26;53.30;101573.03;6072673;23;20087;-78
2023/05/01 10:20:19;;;;;;;8.23;4.40;;;;;;;16.30;50.91;101570.91;6071592;23;19921;-78
2023/05/01 10:22:46;;;;;;;7.53;5.05;;;;;;;16.34;50.46;101568.06;6070844;23;20023;-79
2023/05/01 10:25:13;;;;;;;10.32;4.75;;;;;;;16.51;50.89;101576.44;6071530;23;20118;-79
2023/05/01 10:27:40;;;;;;;8.25;5.05;;;;;;;16.69;50.90;101576.31;6071350;23;20139;-78
2023/05/01 10:30:08;;;;;;;6.63;4.22;;;;;;;16.89;48.80;101579.09;6069809;23;20481;-80
2023/05/01 10:32:36;;;;;;;9.60;4.32;;;;;;;17.03;49.84;101583.00;6071496;23;20019;-81
2023/05/01 10:35:09;;;;;;;9.98;4.60;;;;;;;17.16;48.20;101582.75;6071690;23;20028;-82
2023/05/01 10:37:50;;;;;;;7.82;4.70;;;;;;;17.26;49.43;101586.81;6071428;23;20453;-82
2023/05/01 10:40:38;;;;;;;7.63;4.28;;;;;;;17.28;49.84;101587.81;6071695;23;20407;-81
2023/05/01 10:43:18;;;;;;;7.53;4.90;;;;;;;17.39;49.41;101592.66;6070967;23;20027;-82
2023/05/01 10:45:46;;;;;;;6.57;4.45;;;;;;;17.48;48.64;101587.16;6071347;23;20047;-82
2023/05/01 10:48:38;;;;;;;7.18;4.85;;;;;;;17.56;48.04;101590.97;6068696;23;20495;-82
2023/05/01 10:51:13;;;;;;;5.95;4.68;;;;;;;17.62;48.82;101597.13;6070906;23;20429;-78
2023/05/01 10:53:41;;;;;;;4.95;4.45;;;;;;;17.69;47.91;101582.59;6070875;23;20023;-81
2023/05/01 10:56:36;;;;;;;8.02;5.07;;;;;;;17.85;48.85;101592.13;6070860;23;20181;-81
2023/05/01 10:59:04;;;;;;;9.70;5.03;;;;;;;17.96;47.88;101592.28;6071544;23;20019;-81
2023/05/01 11:01:33;;;;;;;7.50;4.82;;;;;;;17.98;47.47;101593.28;6094262;23;20022;-81
2023/05/01 11:04:06;;;;;;;5.88;4.40;;;;;;;17.92;46.56;101587.06;6100488;23;20429;-81
2023/05/01 11:06:35;;;;;;;8.38;5.00;;;;;;;17.96;45.80;101586.88;6075090;23;20330;-81
2023/05/01 11:09:40;;;;;;;5.43;4.15;;;;;;;18.06;47.76;101592.88;6075603;23;20473;-81
2023/05/01 11:12:09;;;;;;;6.63;4.20;;;;;;;17.92;44.36;101600.53;6099572;23;20030;-81
2023/05/01 11:14:56;;;;;;;6.90;4.32;;;;;;;17.92;45.48;101600.53;6100915;23;20030;-82
2023/05/01 11:17:41;;;;;;;7.15;3.80;;;;;;;17.96;45.94;101595.72;6100915;23;20441;-81
2023/05/01 11:20:32;;;;;;;11.93;4.35;;;;;;;17.92;46.01;101600.53;6100574;23;20394;-81
2023/05/01 11:22:59;;;;;;;4.55;4.00;;;;;;;18.09;46.51;101592.66;6100236;23;20014;-81
2023/05/01 11:25:28;;;;;;;8.48;4.95;;;;;;;18.09;46.38;101591.94;6099917;23;20153;-82
2023/05/01 11:27:56;;;;;;;4.80;4.35;;;;;;;18.16;45.98;101586.13;6075260;23;20042;-81
2023/05/01 11:30:23;;;;;;;6.82;4.43;;;;;;;18.24;46.00;101587.22;6100656;23;20026;-82
2023/05/01 11:32:50;;;;;;;6.22;4.28;;;;;;;18.28;45.61;101593.91;6099424;23;20045;-82
2023/05/01 11:35:22;;;;;;;5.20;3.92;;;;;;;18.40;46.76;101589.34;6100188;23;20063;-83
2023/05/01 11:37:55;;;;;;;5.03;4.20;;;;;;;18.45;46.18;101596.75;6074884;23;20027;-82
2023/05/01 11:40:27;;;;;;;7.20;4.20;;;;;;;18.66;45.99;101589.44;6074725;23;20082;-82